sensor_id;sensor_type;location;lat;lon;timestamp;P1;durP1;ratioP1;P2;durP2;ratioP2
7454;SDS011;3769;51.208;4.454;2023-04-25T00:04:01;13.9;;;3.5;;
7454;SDS011;3769;51.208;4.454;2023-04-25T00:09:00;11.9;;;3.5;;
7454;SDS011;3769;51.208;4.454;2023-04-25T00:14:01;10.9;;;3.1;;
7454;SDS011;3769;51.208;4.454;2023-04-25T00:19:01;14.3;;;3.3;;
7454;SDS011;3769;51.208;4.454;2023-04-25T00:24:01;14.7;;;3.4;;
7454;SDS011;3769;51.208;4.454;2023-04-25T00:29:01;14;;;3.4;;
7454;SDS011;3769;51.208;4.454;2023-04-25T00:34:01;17.8;;;3.9;;
7454;SDS011;3769;51.208;4.454;2023-04-25T00:39:01;10.6;;;3.6;;
7454;SDS011;3769;51.208;4.454;2023-04-25T00:44:01;11.4;;;3.6;;
7454;SDS011;3769;51.208;4.454;2023-04-25T00:49:01;17.9;;;3.9;;
7454;SDS011;3769;51.208;4.454;2023-04-25T00:54:01;10.7;;;3.6;;
7454;SDS011;3769;51.208;4.454;2023-04-25T00:59:01;16.8;;;3.4;;
7454;SDS011;3769;51.208;4.454;2023-04-25T01:04:01;12;;;4.2;;
7454;SDS011;3769;51.208;4.454;2023-04-25T01:09:01;9.8;;;3.6;;
7454;SDS011;3769;51.208;4.454;2023-04-25T01:14:01;13.5;;;3.7;;
7454;SDS011;3769;51.208;4.454;2023-04-25T01:19:01;12.7;;;3.6;;
7454;SDS011;3769;51.208;4.454;2023-04-25T01:24:01;12.3;;;3.9;;
7454;SDS011;3769;51.208;4.454;2023-04-25T01:29:01;13.9;;;3.8;;
7454;SDS011;3769;51.208;4.454;2023-04-25T01:34:01;16.6;;;4.3;;
7454;SDS011;3769;51.208;4.454;2023-04-25T01:39:01;14.2;;;4.1;;
7454;SDS011;3769;51.208;4.454;2023-04-25T01:44:01;17.5;;;4.4;;
7454;SDS011;3769;51.208;4.454;2023-04-25T01:49:01;10.5;;;3.9;;
7454;SDS011;3769;51.208;4.454;2023-04-25T01:54:01;16.5;;;4;;
7454;SDS011;3769;51.208;4.454;2023-04-25T01:59:01;17.5;;;4.6;;
7454;SDS011;3769;51.208;4.454;2023-04-25T02:04:01;14.7;;;5;;
7454;SDS011;3769;51.208;4.454;2023-04-25T02:09:01;11.5;;;4.3;;
7454;SDS011;3769;51.208;4.454;2023-04-25T02:14:00;15.3;;;3.9;;
7454;SDS011;3769;51.208;4.454;2023-04-25T02:19:01;15.9;;;4.4;;
7454;SDS011;3769;51.208;4.454;2023-04-25T02:24:01;16.1;;;5.1;;
7454;SDS011;3769;51.208;4.454;2023-04-25T02:29:01;16.6;;;4.1;;
7454;SDS011;3769;51.208;4.454;2023-04-25T02:34:01;16.6;;;4.2;;
7454;SDS011;3769;51.208;4.454;2023-04-25T02:39:01;16.9;;;3.9;;
7454;SDS011;3769;51.208;4.454;2023-04-25T02:44:01;15.2;;;4.5;;
7454;SDS011;3769;51.208;4.454;2023-04-25T02:49:00;16.6;;;4.8;;
7454;SDS011;3769;51.208;4.454;2023-04-25T02:54:01;16.1;;;4.2;;
7454;SDS011;3769;51.208;4.454;2023-04-25T02:59:01;17.9;;;4.5;;
7454;SDS011;3769;51.208;4.454;2023-04-25T03:04:01;15.8;;;4.2;;
7454;SDS011;3769;51.208;4.454;2023-04-25T03:09:01;13.4;;;4.2;;
7454;SDS011;3769;51.208;4.454;2023-04-25T03:14:00;14.4;;;3.9;;
7454;SDS011;3769;51.208;4.454;2023-04-25T03:19:01;21.8;;;4.7;;
7454;SDS011;3769;51.208;4.454;2023-04-25T03:24:01;14.9;;;4.5;;
7454;SDS011;3769;51.208;4.454;2023-04-25T03:29:01;23.6;;;4.4;;
7454;SDS011;3769;51.208;4.454;2023-04-25T03:34:01;13.7;;;4.2;;
7454;SDS011;3769;51.208;4.454;2023-04-25T03:39:01;14.9;;;4.4;;
7454;SDS011;3769;51.208;4.454;2023-04-25T03:44:01;13.8;;;3.8;;
7454;SDS011;3769;51.208;4.454;2023-04-25T03:49:01;14.8;;;3.9;;
7454;SDS011;3769;51.208;4.454;2023-04-25T03:54:01;17.1;;;4.1;;
7454;SDS011;3769;51.208;4.454;2023-04-25T03:59:01;14;;;4.6;;
7454;SDS011;3769;51.208;4.454;2023-04-25T04:04:01;14.8;;;3.9;;
7454;SDS011;3769;51.208;4.454;2023-04-25T04:09:01;14.9;;;4.3;;
7454;SDS011;3769;51.208;4.454;2023-04-25T04:14:01;15.3;;;4.3;;
7454;SDS011;3769;51.208;4.454;2023-04-25T04:19:01;12.5;;;4;;
7454;SDS011;3769;51.208;4.454;2023-04-25T04:24:01;9.7;;;3.4;;
7454;SDS011;3769;51.208;4.454;2023-04-25T04:29:01;8;;;3.1;;
7454;SDS011;3769;51.208;4.454;2023-04-25T04:34:01;11.5;;;2.9;;
7454;SDS011;3769;51.208;4.454;2023-04-25T04:39:01;12;;;3.2;;
7454;SDS011;3769;51.208;4.454;2023-04-25T04:44:01;14.7;;;3.3;;
7454;SDS011;3769;51.208;4.454;2023-04-25T04:49:01;8.8;;;3.3;;
7454;SDS011;3769;51.208;4.454;2023-04-25T04:54:01;11.7;;;3.2;;
7454;SDS011;3769;51.208;4.454;2023-04-25T04:59:01;12.5;;;3.8;;
7454;SDS011;3769;51.208;4.454;2023-04-25T05:04:01;13.2;;;3.6;;
7454;SDS011;3769;51.208;4.454;2023-04-25T05:09:01;14.4;;;3.7;;
7454;SDS011;3769;51.208;4.454;2023-04-25T05:14:01;11.4;;;3.7;;
7454;SDS011;3769;51.208;4.454;2023-04-25T05:19:01;16.3;;;4.1;;
7454;SDS011;3769;51.208;4.454;2023-04-25T05:24:01;12.3;;;3.6;;
7454;SDS011;3769;51.208;4.454;2023-04-25T05:29:01;15.9;;;4;;
7454;SDS011;3769;51.208;4.454;2023-04-25T05:34:01;20.2;;;3.9;;
7454;SDS011;3769;51.208;4.454;2023-04-25T05:39:01;13.2;;;4.3;;
7454;SDS011;3769;51.208;4.454;2023-04-25T05:44:01;12.6;;;3.4;;
7454;SDS011;3769;51.208;4.454;2023-04-25T05:49:01;17.4;;;3.9;;
7454;SDS011;3769;51.208;4.454;2023-04-25T05:54:01;13.9;;;3.6;;
7454;SDS011;3769;51.208;4.454;2023-04-25T05:59:01;12.9;;;3.4;;
7454;SDS011;3769;51.208;4.454;2023-04-25T06:04:01;12;;;3.7;;
7454;SDS011;3769;51.208;4.454;2023-04-25T06:09:01;11.9;;;3.3;;
7454;SDS011;3769;51.208;4.454;2023-04-25T06:14:01;15.3;;;3.3;;
7454;SDS011;3769;51.208;4.454;2023-04-25T06:19:01;11.7;;;3.7;;
7454;SDS011;3769;51.208;4.454;2023-04-25T06:24:01;12.7;;;3.4;;
7454;SDS011;3769;51.208;4.454;2023-04-25T06:29:01;12.3;;;3.1;;
7454;SDS011;3769;51.208;4.454;2023-04-25T06:34:01;10;;;3.1;;
7454;SDS011;3769;51.208;4.454;2023-04-25T06:39:01;9;;;2.9;;
7454;SDS011;3769;51.208;4.454;2023-04-25T06:44:01;12.8;;;2.7;;
7454;SDS011;3769;51.208;4.454;2023-04-25T06:49:01;9.4;;;2.6;;
7454;SDS011;3769;51.208;4.454;2023-04-25T06:54:01;8.1;;;2.7;;
7454;SDS011;3769;51.208;4.454;2023-04-25T06:59:01;9.5;;;2.6;;
7454;SDS011;3769;51.208;4.454;2023-04-25T07:04:01;10.7;;;2.6;;
7454;SDS011;3769;51.208;4.454;2023-04-25T07:09:01;12;;;2.8;;
7454;SDS011;3769;51.208;4.454;2023-04-25T07:14:01;8.6;;;2.5;;
7454;SDS011;3769;51.208;4.454;2023-04-25T07:19:01;10.4;;;2.7;;
7454;SDS011;3769;51.208;4.454;2023-04-25T07:24:01;5.9;;;2.2;;
7454;SDS011;3769;51.208;4.454;2023-04-25T07:29:01;12.6;;;2.6;;
7454;SDS011;3769;51.208;4.454;2023-04-25T07:34:01;11.2;;;2.8;;
7454;SDS011;3769;51.208;4.454;2023-04-25T07:39:01;13.7;;;3.1;;
7454;SDS011;3769;51.208;4.454;2023-04-25T07:44:01;10.6;;;2.5;;
7454;SDS011;3769;51.208;4.454;2023-04-25T07:49:01;13.7;;;3.1;;
7454;SDS011;3769;51.208;4.454;2023-04-25T07:54:01;9.5;;;2.5;;
7454;SDS011;3769;51.208;4.454;2023-04-25T07:59:01;10.3;;;2.6;;
7454;SDS011;3769;51.208;4.454;2023-04-25T08:04:01;11.6;;;2.7;;
7454;SDS011;3769;51.208;4.454;2023-04-25T08:09:01;11.3;;;2.2;;
7454;SDS011;3769;51.208;4.454;2023-04-25T08:14:01;4.9;;;1.7;;
7454;SDS011;3769;51.208;4.454;2023-04-25T08:19:01;8.3;;;2;;
7454;SDS011;3769;51.208;4.454;2023-04-25T08:24:01;7.1;;;2;;
7454;SDS011;3769;51.208;4.454;2023-04-25T08:29:01;6.4;;;1.9;;
7454;SDS011;3769;51.208;4.454;2023-04-25T08:34:01;7.1;;;2.3;;
7454;SDS011;3769;51.208;4.454;2023-04-25T08:39:01;6.4;;;1.9;;
7454;SDS011;3769;51.208;4.454;2023-04-25T08:44:01;5.2;;;1.9;;
7454;SDS011;3769;51.208;4.454;2023-04-25T08:49:01;9.5;;;2.1;;
7454;SDS011;3769;51.208;4.454;2023-04-25T08:54:08;6.7;;;1.9;;
7454;SDS011;3769;51.208;4.454;2023-04-25T08:59:01;6.5;;;2;;
7454;SDS011;3769;51.208;4.454;2023-04-25T09:04:01;8.7;;;2.2;;
7454;SDS011;3769;51.208;4.454;2023-04-25T09:09:02;5.5;;;1.8;;
7454;SDS011;3769;51.208;4.454;2023-04-25T09:14:17;6.4;;;2.4;;
7454;SDS011;3769;51.208;4.454;2023-04-25T09:19:01;5.8;;;1.9;;
7454;SDS011;3769;51.208;4.454;2023-04-25T09:24:01;3.9;;;1.8;;
7454;SDS011;3769;51.208;4.454;2023-04-25T09:29:04;6.8;;;1.9;;
7454;SDS011;3769;51.208;4.454;2023-04-25T09:34:01;3.3;;;1.9;;
7454;SDS011;3769;51.208;4.454;2023-04-25T09:39:01;5.8;;;1.4;;
7454;SDS011;3769;51.208;4.454;2023-04-25T09:44:01;3.1;;;1.3;;
7454;SDS011;3769;51.208;4.454;2023-04-25T09:49:05;5.5;;;2;;
7454;SDS011;3769;51.208;4.454;2023-04-25T09:54:01;9.4;;;2;;
7454;SDS011;3769;51.208;4.454;2023-04-25T09:59:01;4.8;;;1.6;;
7454;SDS011;3769;51.208;4.454;2023-04-25T10:04:01;5.9;;;1.6;;
7454;SDS011;3769;51.208;4.454;2023-04-25T10:09:01;5.1;;;1.7;;
7454;SDS011;3769;51.208;4.454;2023-04-25T10:14:01;6.3;;;1.9;;
7454;SDS011;3769;51.208;4.454;2023-04-25T10:19:01;11;;;2.6;;
7454;SDS011;3769;51.208;4.454;2023-04-25T10:24:01;8.5;;;2.3;;
7454;SDS011;3769;51.208;4.454;2023-04-25T10:29:02;6.7;;;1.8;;
7454;SDS011;3769;51.208;4.454;2023-04-25T10:34:01;5.5;;;1.7;;
7454;SDS011;3769;51.208;4.454;2023-04-25T10:39:04;6.6;;;1.9;;
7454;SDS011;3769;51.208;4.454;2023-04-25T10:44:01;5.2;;;1.7;;
7454;SDS011;3769;51.208;4.454;2023-04-25T10:49:01;8.3;;;1.6;;
7454;SDS011;3769;51.208;4.454;2023-04-25T10:54:02;4.6;;;1.4;;
7454;SDS011;3769;51.208;4.454;2023-04-25T10:59:17;5.6;;;2;;
7454;SDS011;3769;51.208;4.454;2023-04-25T11:04:01;2.7;;;1.3;;
7454;SDS011;3769;51.208;4.454;2023-04-25T11:09:01;4.3;;;1.5;;
7454;SDS011;3769;51.208;4.454;2023-04-25T11:14:01;4.8;;;1.4;;
7454;SDS011;3769;51.208;4.454;2023-04-25T11:19:01;2.3;;;1.2;;
7454;SDS011;3769;51.208;4.454;2023-04-25T11:24:01;3.8;;;1.6;;
7454;SDS011;3769;51.208;4.454;2023-04-25T11:29:01;5.1;;;1.3;;
7454;SDS011;3769;51.208;4.454;2023-04-25T11:34:01;6.2;;;1.3;;
7454;SDS011;3769;51.208;4.454;2023-04-25T11:39:01;3.3;;;1.2;;
7454;SDS011;3769;51.208;4.454;2023-04-25T11:44:01;2.9;;;1.4;;
7454;SDS011;3769;51.208;4.454;2023-04-25T11:49:01;6;;;1.7;;
7454;SDS011;3769;51.208;4.454;2023-04-25T11:54:01;3.4;;;2.1;;
7454;SDS011;3769;51.208;4.454;2023-04-25T11:59:01;5.6;;;1.4;;
7454;SDS011;3769;51.208;4.454;2023-04-25T12:04:17;4.7;;;1.6;;
7454;SDS011;3769;51.208;4.454;2023-04-25T12:09:02;6.5;;;1.7;;
7454;SDS011;3769;51.208;4.454;2023-04-25T12:14:01;5.3;;;1.2;;
7454;SDS011;3769;51.208;4.454;2023-04-25T12:19:01;3.8;;;1.4;;
7454;SDS011;3769;51.208;4.454;2023-04-25T12:24:17;5.3;;;1.7;;
7454;SDS011;3769;51.208;4.454;2023-04-25T12:29:01;2.9;;;1.3;;
7454;SDS011;3769;51.208;4.454;2023-04-25T12:34:01;3.1;;;1.3;;
7454;SDS011;3769;51.208;4.454;2023-04-25T12:39:01;9;;;1.5;;
7454;SDS011;3769;51.208;4.454;2023-04-25T12:44:01;4.4;;;1.4;;
7454;SDS011;3769;51.208;4.454;2023-04-25T12:49:01;3.2;;;1.6;;
7454;SDS011;3769;51.208;4.454;2023-04-25T12:54:01;3;;;1.2;;
7454;SDS011;3769;51.208;4.454;2023-04-25T12:59:01;3.6;;;1.4;;
7454;SDS011;3769;51.208;4.454;2023-04-25T13:04:01;5.4;;;1.4;;
7454;SDS011;3769;51.208;4.454;2023-04-25T13:09:01;6.9;;;1.6;;
7454;SDS011;3769;51.208;4.454;2023-04-25T13:14:01;4.1;;;1.5;;
7454;SDS011;3769;51.208;4.454;2023-04-25T13:19:01;5;;;1.7;;
7454;SDS011;3769;51.208;4.454;2023-04-25T13:24:01;6.6;;;1.7;;
7454;SDS011;3769;51.208;4.454;2023-04-25T13:29:01;5.9;;;2.1;;
7454;SDS011;3769;51.208;4.454;2023-04-25T13:34:01;4.1;;;1.6;;
7454;SDS011;3769;51.208;4.454;2023-04-25T13:39:01;7.3;;;1.5;;
7454;SDS011;3769;51.208;4.454;2023-04-25T13:44:01;5.1;;;1.8;;
7454;SDS011;3769;51.208;4.454;2023-04-25T13:49:01;5.1;;;2;;
7454;SDS011;3769;51.208;4.454;2023-04-25T13:54:01;5.3;;;1.7;;
7454;SDS011;3769;51.208;4.454;2023-04-25T13:59:01;5.3;;;1.6;;
7454;SDS011;3769;51.208;4.454;2023-04-25T14:04:01;4.1;;;1.8;;
7454;SDS011;3769;51.208;4.454;2023-04-25T14:09:01;5.8;;;1.8;;
7454;SDS011;3769;51.208;4.454;2023-04-25T14:14:01;5.9;;;1.8;;
7454;SDS011;3769;51.208;4.454;2023-04-25T14:19:01;4.8;;;1.6;;
7454;SDS011;3769;51.208;4.454;2023-04-25T14:24:01;5.6;;;2.2;;
7454;SDS011;3769;51.208;4.454;2023-04-25T14:29:01;5.4;;;1.9;;
7454;SDS011;3769;51.208;4.454;2023-04-25T14:34:01;3.7;;;1.6;;
7454;SDS011;3769;51.208;4.454;2023-04-25T14:39:01;9.3;;;2.1;;
7454;SDS011;3769;51.208;4.454;2023-04-25T14:44:01;10.2;;;2;;
7454;SDS011;3769;51.208;4.454;2023-04-25T14:49:01;6.3;;;1.7;;
7454;SDS011;3769;51.208;4.454;2023-04-25T14:54:01;5.2;;;1.6;;
7454;SDS011;3769;51.208;4.454;2023-04-25T14:59:01;5.3;;;1.8;;
7454;SDS011;3769;51.208;4.454;2023-04-25T15:04:01;4.7;;;1.9;;
7454;SDS011;3769;51.208;4.454;2023-04-25T15:09:01;3;;;1.5;;
7454;SDS011;3769;51.208;4.454;2023-04-25T15:14:01;5.1;;;1.6;;
7454;SDS011;3769;51.208;4.454;2023-04-25T15:19:01;4.6;;;1.6;;
7454;SDS011;3769;51.208;4.454;2023-04-25T15:24:01;8.9;;;1.7;;
7454;SDS011;3769;51.208;4.454;2023-04-25T15:29:01;3.9;;;1.4;;
7454;SDS011;3769;51.208;4.454;2023-04-25T15:34:01;5.9;;;1.6;;
7454;SDS011;3769;51.208;4.454;2023-04-25T15:39:01;4.2;;;1.5;;
7454;SDS011;3769;51.208;4.454;2023-04-25T15:44:01;3.9;;;1.3;;
7454;SDS011;3769;51.208;4.454;2023-04-25T15:49:01;4.5;;;1.6;;
7454;SDS011;3769;51.208;4.454;2023-04-25T15:54:01;4.6;;;2.1;;
7454;SDS011;3769;51.208;4.454;2023-04-25T15:59:01;4;;;1.6;;
7454;SDS011;3769;51.208;4.454;2023-04-25T16:04:01;6.7;;;2;;
7454;SDS011;3769;51.208;4.454;2023-04-25T16:09:01;4.5;;;1.6;;
7454;SDS011;3769;51.208;4.454;2023-04-25T16:14:01;4.7;;;1.7;;
7454;SDS011;3769;51.208;4.454;2023-04-25T16:19:01;5;;;2.1;;
7454;SDS011;3769;51.208;4.454;2023-04-25T16:24:01;2.6;;;1.6;;
7454;SDS011;3769;51.208;4.454;2023-04-25T16:29:02;5.1;;;2;;
7454;SDS011;3769;51.208;4.454;2023-04-25T16:34:01;8.1;;;1.8;;
7454;SDS011;3769;51.208;4.454;2023-04-25T16:39:01;6.7;;;2.1;;
7454;SDS011;3769;51.208;4.454;2023-04-25T16:44:01;4.6;;;1.5;;
7454;SDS011;3769;51.208;4.454;2023-04-25T16:49:01;6.4;;;2.9;;
7454;SDS011;3769;51.208;4.454;2023-04-25T16:54:01;5.6;;;3;;
7454;SDS011;3769;51.208;4.454;2023-04-25T16:59:01;5.2;;;1.6;;
7454;SDS011;3769;51.208;4.454;2023-04-25T17:04:01;3.4;;;1.3;;
7454;SDS011;3769;51.208;4.454;2023-04-25T17:09:01;4.5;;;1.9;;
7454;SDS011;3769;51.208;4.454;2023-04-25T17:14:01;15;;;5.3;;
7454;SDS011;3769;51.208;4.454;2023-04-25T17:19:01;16.2;;;8.5;;
7454;SDS011;3769;51.208;4.454;2023-04-25T17:24:01;8.5;;;3.4;;
7454;SDS011;3769;51.208;4.454;2023-04-25T17:29:01;6.6;;;2.5;;
7454;SDS011;3769;51.208;4.454;2023-04-25T17:34:01;9.6;;;2.1;;
7454;SDS011;3769;51.208;4.454;2023-04-25T17:39:01;3.7;;;1.6;;
7454;SDS011;3769;51.208;4.454;2023-04-25T17:44:01;4.2;;;1.8;;
7454;SDS011;3769;51.208;4.454;2023-04-25T17:49:01;3.8;;;1.6;;
7454;SDS011;3769;51.208;4.454;2023-04-25T17:54:01;2.8;;;1.4;;
7454;SDS011;3769;51.208;4.454;2023-04-25T17:59:01;4.4;;;1.3;;
7454;SDS011;3769;51.208;4.454;2023-04-25T18:04:01;4.2;;;1.5;;
7454;SDS011;3769;51.208;4.454;2023-04-25T18:09:01;3.8;;;1.6;;
7454;SDS011;3769;51.208;4.454;2023-04-25T18:14:01;5.1;;;1.7;;
7454;SDS011;3769;51.208;4.454;2023-04-25T18:19:01;4.5;;;1.9;;
7454;SDS011;3769;51.208;4.454;2023-04-25T18:24:01;5.6;;;2.6;;
7454;SDS011;3769;51.208;4.454;2023-04-25T18:29:01;7.4;;;2.3;;
7454;SDS011;3769;51.208;4.454;2023-04-25T18:34:01;3.5;;;1.6;;
7454;SDS011;3769;51.208;4.454;2023-04-25T18:39:01;5.8;;;1.5;;
7454;SDS011;3769;51.208;4.454;2023-04-25T18:44:01;5.8;;;2;;
7454;SDS011;3769;51.208;4.454;2023-04-25T18:49:01;5.2;;;1.6;;
7454;SDS011;3769;51.208;4.454;2023-04-25T18:54:01;6.2;;;2.2;;
7454;SDS011;3769;51.208;4.454;2023-04-25T18:59:01;6.7;;;1.6;;
7454;SDS011;3769;51.208;4.454;2023-04-25T19:04:01;6.5;;;1.8;;
7454;SDS011;3769;51.208;4.454;2023-04-25T19:09:01;8.1;;;1.9;;
7454;SDS011;3769;51.208;4.454;2023-04-25T19:14:01;6.6;;;2;;
7454;SDS011;3769;51.208;4.454;2023-04-25T19:19:01;5.4;;;2;;
7454;SDS011;3769;51.208;4.454;2023-04-25T19:24:01;5.3;;;1.8;;
7454;SDS011;3769;51.208;4.454;2023-04-25T19:29:07;8.7;;;2.8;;
7454;SDS011;3769;51.208;4.454;2023-04-25T19:34:01;5.3;;;2.1;;
7454;SDS011;3769;51.208;4.454;2023-04-25T19:39:01;6.5;;;2.1;;
7454;SDS011;3769;51.208;4.454;2023-04-25T19:44:03;5.2;;;1.7;;
7454;SDS011;3769;51.208;4.454;2023-04-25T19:49:01;4;;;1.7;;
7454;SDS011;3769;51.208;4.454;2023-04-25T19:54:01;4.5;;;1.8;;
7454;SDS011;3769;51.208;4.454;2023-04-25T19:59:01;6.1;;;1.8;;
7454;SDS011;3769;51.208;4.454;2023-04-25T20:04:01;7.1;;;2;;
7454;SDS011;3769;51.208;4.454;2023-04-25T20:09:01;7.3;;;2.1;;
7454;SDS011;3769;51.208;4.454;2023-04-25T20:14:01;4.9;;;1.8;;
7454;SDS011;3769;51.208;4.454;2023-04-25T20:19:01;8.1;;;2.2;;
7454;SDS011;3769;51.208;4.454;2023-04-25T20:24:01;9.5;;;2.5;;
7454;SDS011;3769;51.208;4.454;2023-04-25T20:29:01;6.2;;;2.4;;
7454;SDS011;3769;51.208;4.454;2023-04-25T20:34:01;7.2;;;2;;
7454;SDS011;3769;51.208;4.454;2023-04-25T20:39:03;4.3;;;2;;
7454;SDS011;3769;51.208;4.454;2023-04-25T20:44:01;4.1;;;1.9;;
7454;SDS011;3769;51.208;4.454;2023-04-25T20:49:01;6.6;;;2.2;;
7454;SDS011;3769;51.208;4.454;2023-04-25T20:54:01;8.1;;;2.1;;
7454;SDS011;3769;51.208;4.454;2023-04-25T20:59:01;8.4;;;2.3;;
7454;SDS011;3769;51.208;4.454;2023-04-25T21:04:01;8.5;;;2.3;;
7454;SDS011;3769;51.208;4.454;2023-04-25T21:09:01;12.3;;;2.6;;
7454;SDS011;3769;51.208;4.454;2023-04-25T21:14:01;6.6;;;2;;
7454;SDS011;3769;51.208;4.454;2023-04-25T21:19:01;4.9;;;2.3;;
7454;SDS011;3769;51.208;4.454;2023-04-25T21:24:01;9.2;;;2.5;;
7454;SDS011;3769;51.208;4.454;2023-04-25T21:29:01;10.2;;;2.2;;
7454;SDS011;3769;51.208;4.454;2023-04-25T21:34:01;8.7;;;2.3;;
7454;SDS011;3769;51.208;4.454;2023-04-25T21:39:01;8.3;;;2.5;;
7454;SDS011;3769;51.208;4.454;2023-04-25T21:44:01;6.3;;;2.3;;
7454;SDS011;3769;51.208;4.454;2023-04-25T21:49:01;8.6;;;2.6;;
7454;SDS011;3769;51.208;4.454;2023-04-25T21:54:01;6.1;;;2.8;;
7454;SDS011;3769;51.208;4.454;2023-04-25T21:59:01;7.4;;;2.4;;
7454;SDS011;3769;51.208;4.454;2023-04-25T22:04:01;5.8;;;2.5;;
7454;SDS011;3769;51.208;4.454;2023-04-25T22:09:01;5.2;;;2.4;;
7454;SDS011;3769;51.208;4.454;2023-04-25T22:14:01;5.4;;;2.3;;
7454;SDS011;3769;51.208;4.454;2023-04-25T22:19:01;7.8;;;2.4;;
7454;SDS011;3769;51.208;4.454;2023-04-25T22:24:01;5.9;;;3.1;;
7454;SDS011;3769;51.208;4.454;2023-04-25T22:29:01;7.6;;;2.7;;
7454;SDS011;3769;51.208;4.454;2023-04-25T22:34:01;7.8;;;2.7;;
7454;SDS011;3769;51.208;4.454;2023-04-25T22:39:01;6.4;;;2.5;;
7454;SDS011;3769;51.208;4.454;2023-04-25T22:44:01;7.4;;;3;;
7454;SDS011;3769;51.208;4.454;2023-04-25T22:49:01;9.8;;;2.9;;
7454;SDS011;3769;51.208;4.454;2023-04-25T22:54:01;6;;;3.1;;
7454;SDS011;3769;51.208;4.454;2023-04-25T22:59:01;6.2;;;2.9;;
7454;SDS011;3769;51.208;4.454;2023-04-25T23:04:01;8.4;;;3;;
7454;SDS011;3769;51.208;4.454;2023-04-25T23:09:01;6.6;;;3.1;;
7454;SDS011;3769;51.208;4.454;2023-04-25T23:14:01;5.5;;;2.8;;
7454;SDS011;3769;51.208;4.454;2023-04-25T23:19:01;9.1;;;3.3;;
7454;SDS011;3769;51.208;4.454;2023-04-25T23:24:01;10.2;;;3.3;;
7454;SDS011;3769;51.208;4.454;2023-04-25T23:29:01;9.2;;;3.5;;
7454;SDS011;3769;51.208;4.454;2023-04-25T23:34:01;5.9;;;2.8;;
7454;SDS011;3769;51.208;4.454;2023-04-25T23:39:01;6.4;;;3.1;;
7454;SDS011;3769;51.208;4.454;2023-04-25T23:44:01;9;;;3.5;;
7454;SDS011;3769;51.208;4.454;2023-04-25T23:49:01;8.2;;;3.3;;
7454;SDS011;3769;51.208;4.454;2023-04-25T23:54:01;7.3;;;3.4;;
7454;SDS011;3769;51.208;4.454;2023-04-25T23:59:01;11.2;;;3.5;;
